createdAt,value
2018-09-25T00:00:38.753Z,3.47
2018-09-25T00:03:12.465Z,2.55
2018-09-25T00:05:46.055Z,2.60
2018-09-25T00:08:20.190Z,2.95
2018-09-25T00:10:53.906Z,2.75
2018-09-25T00:13:27.590Z,2.55
2018-09-25T00:16:01.258Z,3.05
2018-09-25T00:18:34.974Z,2.40
2018-09-25T00:21:08.670Z,2.77
2018-09-25T00:23:42.363Z,2.42
2018-09-25T00:26:16.052Z,3.35
2018-09-25T00:28:49.688Z,3.30
2018-09-25T00:31:23.294Z,2.83
2018-09-25T00:33:57.425Z,3.05
2018-09-25T00:36:31.121Z,3.30
2018-09-25T00:39:04.929Z,2.42
2018-09-25T00:41:38.384Z,2.80
2018-09-25T00:44:12.123Z,3.08
2018-09-25T00:46:45.797Z,2.62
2018-09-25T00:49:19.338Z,3.60
2018-09-25T00:51:52.882Z,4.05
2018-09-25T00:54:26.706Z,2.50
2018-09-25T00:57:00.457Z,2.72
2018-09-25T00:59:34.083Z,3.10
2018-09-25T01:02:07.798Z,2.90
2018-09-25T01:04:41.529Z,3.00
2018-09-25T01:07:15.042Z,2.70
2018-09-25T01:09:48.651Z,2.92
2018-09-25T01:12:22.299Z,3.30
2018-09-25T01:15:02.818Z,3.37
2018-09-25T01:17:36.356Z,2.77
2018-09-25T01:20:09.929Z,2.75
2018-09-25T01:22:43.685Z,3.27
2018-09-25T01:25:17.265Z,3.47
2018-09-25T01:27:50.921Z,3.50
2018-09-25T01:30:24.726Z,2.85
2018-09-25T01:32:58.177Z,2.87
2018-09-25T01:35:31.919Z,2.80
2018-09-25T01:38:05.706Z,3.40
2018-09-25T01:40:39.761Z,3.10
2018-09-25T01:43:13.573Z,2.83
2018-09-25T01:45:47.250Z,3.60
2018-09-25T01:48:20.937Z,3.00
2018-09-25T01:50:54.557Z,2.60
2018-09-25T01:53:28.090Z,2.55
2018-09-25T01:56:01.845Z,2.50
2018-09-25T01:58:35.626Z,2.80
2018-09-25T02:01:09.533Z,2.35
2018-09-25T02:03:43.112Z,2.77
2018-09-25T02:06:16.870Z,2.40
2018-09-25T02:08:50.297Z,2.50
2018-09-25T02:11:23.853Z,2.90
2018-09-25T02:13:57.434Z,2.65
2018-09-25T02:19:17.341Z,2.50
2018-09-25T02:21:51.031Z,2.50
2018-09-25T02:24:24.575Z,2.70
2018-09-25T02:26:58.690Z,3.15
2018-09-25T02:29:32.344Z,2.20
2018-09-25T02:32:05.950Z,2.65
2018-09-25T02:34:39.361Z,2.85
2018-09-25T02:37:12.980Z,2.35
2018-09-25T02:39:46.554Z,2.70
2018-09-25T02:42:20.254Z,2.40
2018-09-25T02:44:53.956Z,2.50
2018-09-25T02:47:27.554Z,2.50
2018-09-25T02:50:01.249Z,2.60
2018-09-25T02:52:34.985Z,3.35
2018-09-25T02:55:08.702Z,2.40
2018-09-25T02:57:42.394Z,2.92
2018-09-25T03:00:16.190Z,2.65
2018-09-25T03:02:50.139Z,2.40
2018-09-25T03:05:23.886Z,2.67
2018-09-25T03:07:57.506Z,2.47
2018-09-25T03:10:31.162Z,2.55
2018-09-25T03:13:04.655Z,3.15
2018-09-25T03:15:38.393Z,2.50
2018-09-25T03:18:12.055Z,2.58
2018-09-25T03:20:45.702Z,2.52
2018-09-25T03:23:19.165Z,2.40
2018-09-25T03:25:53.188Z,3.05
2018-09-25T03:28:26.829Z,2.70
2018-09-25T03:31:00.515Z,2.98
2018-09-25T03:33:34.012Z,2.60
2018-09-25T03:36:07.705Z,3.25
2018-09-25T03:38:41.761Z,2.92
2018-09-25T03:41:15.521Z,2.70
2018-09-25T03:43:49.257Z,2.92
2018-09-25T03:46:22.926Z,2.77
2018-09-25T03:48:56.662Z,3.10
2018-09-25T03:51:30.281Z,2.87
2018-09-25T03:54:03.997Z,3.10
2018-09-25T03:56:37.733Z,2.45
2018-09-25T03:59:11.555Z,3.62
2018-09-25T04:01:45.058Z,2.90
2018-09-25T04:04:18.979Z,2.87
2018-09-25T04:06:52.750Z,3.40
2018-09-25T04:09:26.503Z,3.42
2018-09-25T04:12:00.057Z,3.20
2018-09-25T04:14:34.222Z,5.40
2018-09-25T04:17:07.837Z,2.90
2018-09-25T04:19:41.633Z,3.00
2018-09-25T04:22:15.050Z,3.10
2018-09-25T04:24:48.808Z,2.90
2018-09-25T04:27:22.482Z,4.20
2018-09-25T04:29:56.111Z,3.65
2018-09-25T04:32:29.661Z,3.60
2018-09-25T04:35:03.430Z,3.72
2018-09-25T04:37:37.201Z,3.25
2018-09-25T04:40:10.899Z,3.35
2018-09-25T04:42:44.653Z,3.40
2018-09-25T04:45:18.243Z,4.20
2018-09-25T04:47:51.954Z,3.17
2018-09-25T04:50:25.562Z,3.62
2018-09-25T04:52:59.205Z,4.20
2018-09-25T04:55:32.856Z,3.33
2018-09-25T04:58:06.520Z,3.20
2018-09-25T05:00:41.001Z,4.00
2018-09-25T05:03:14.425Z,3.50
2018-09-25T05:05:48.251Z,3.20
2018-09-25T05:08:21.849Z,3.50
2018-09-25T05:10:55.588Z,3.12
2018-09-25T05:13:29.018Z,3.00
2018-09-25T05:16:02.474Z,3.83
2018-09-25T05:18:36.141Z,3.70
2018-09-25T05:21:09.953Z,3.25
2018-09-25T05:23:43.457Z,3.70
2018-09-25T05:26:17.131Z,3.90
2018-09-25T05:28:50.627Z,4.08
2018-09-25T05:31:24.701Z,4.47
2018-09-25T05:33:58.373Z,4.03
2018-09-25T05:36:32.206Z,3.80
2018-09-25T05:39:05.784Z,3.77
2018-09-25T05:41:39.477Z,3.30
2018-09-25T05:44:13.059Z,4.05
2018-09-25T05:46:46.693Z,3.87
2018-09-25T05:49:20.384Z,3.42
2018-09-25T05:51:53.961Z,3.70
2018-09-25T05:54:27.660Z,4.17
2018-09-25T05:57:01.443Z,3.85
2018-09-25T05:59:35.205Z,4.12
2018-09-25T06:02:08.888Z,4.33
2018-09-25T06:04:42.627Z,4.58
2018-09-25T06:07:16.342Z,4.30
2018-09-25T06:09:50.216Z,4.17
2018-09-25T06:12:23.830Z,4.20
2018-09-25T06:14:57.330Z,4.20
2018-09-25T06:17:31.010Z,5.50
2018-09-25T06:20:04.770Z,4.42
2018-09-25T06:22:38.570Z,4.80
2018-09-25T06:25:12.222Z,4.30
2018-09-25T06:27:46.727Z,5.10
2018-09-25T06:30:20.483Z,4.08
2018-09-25T06:32:54.074Z,5.05
2018-09-25T06:35:27.854Z,4.78
2018-09-25T06:38:01.574Z,4.33
2018-09-25T06:40:35.245Z,5.22
2018-09-25T06:43:09.206Z,4.87
2018-09-25T06:45:42.833Z,5.08
2018-09-25T06:48:16.610Z,5.03
2018-09-25T06:50:51.708Z,5.62
2018-09-25T06:53:25.833Z,5.35
2018-09-25T06:55:59.631Z,5.58
2018-09-25T06:58:33.065Z,4.65
2018-09-25T07:01:06.518Z,4.70
2018-09-25T07:03:40.294Z,4.67
2018-09-25T07:06:14.084Z,4.75
2018-09-25T07:08:47.789Z,5.35
2018-09-25T07:11:21.543Z,5.47
2018-09-25T07:13:55.234Z,4.12
2018-09-25T07:16:28.865Z,3.47
2018-09-25T07:19:02.603Z,3.17
2018-09-25T07:21:36.354Z,2.80
2018-09-25T07:24:09.745Z,2.65
2018-09-25T07:26:43.353Z,2.67
2018-09-25T07:29:17.073Z,2.85
2018-09-25T07:31:50.579Z,2.22
2018-09-25T07:34:24.250Z,3.05
2018-09-25T07:36:57.802Z,2.70
2018-09-25T07:39:31.446Z,3.00
2018-09-25T07:42:05.169Z,2.50
2018-09-25T07:44:38.842Z,2.90
2018-09-25T07:47:12.366Z,3.10
2018-09-25T07:49:45.890Z,2.25
2018-09-25T07:52:19.662Z,2.10
2018-09-25T07:54:53.375Z,2.52
2018-09-25T07:57:26.984Z,2.67
2018-09-25T08:00:00.507Z,2.72
2018-09-25T08:02:34.254Z,2.40
2018-09-25T08:05:08.382Z,2.87
2018-09-25T08:07:41.969Z,3.05
2018-09-25T08:10:15.823Z,2.62
2018-09-25T08:12:50.110Z,2.70
2018-09-25T08:15:23.857Z,2.22
2018-09-25T08:17:57.434Z,2.37
2018-09-25T08:20:31.155Z,2.70
2018-09-25T08:23:04.734Z,1.82
2018-09-25T08:25:38.512Z,1.87
2018-09-25T08:28:12.238Z,1.62
2018-09-25T08:30:45.990Z,1.70
2018-09-25T08:33:19.454Z,1.25
2018-09-25T08:35:53.070Z,2.47
2018-09-25T08:38:26.688Z,1.60
2018-09-25T08:41:00.454Z,1.25
2018-09-25T08:43:34.164Z,1.07
2018-09-25T08:46:07.837Z,1.30
2018-09-25T08:48:41.639Z,1.00
2018-09-25T08:51:15.346Z,0.53
2018-09-25T08:53:49.049Z,0.60
2018-09-25T08:56:22.766Z,0.90
2018-09-25T08:58:56.450Z,0.60
2018-09-25T09:01:30.111Z,0.70
2018-09-25T09:04:03.730Z,0.70
2018-09-25T09:06:37.503Z,0.80
2018-09-25T09:09:14.074Z,0.67
2018-09-25T09:11:48.468Z,0.73
2018-09-25T09:14:22.153Z,0.63
2018-09-25T09:16:55.832Z,0.73
2018-09-25T09:19:29.603Z,0.70
2018-09-25T09:22:03.229Z,0.90
2018-09-25T09:24:36.805Z,0.80
2018-09-25T09:27:10.469Z,0.50
2018-09-25T09:29:44.035Z,0.93
2018-09-25T09:32:17.787Z,0.70
2018-09-25T09:34:51.566Z,0.77
2018-09-25T09:37:25.334Z,0.80
2018-09-25T09:39:59.001Z,1.00
2018-09-25T09:42:32.705Z,0.63
2018-09-25T09:45:06.449Z,0.70
2018-09-25T09:47:40.105Z,1.00
2018-09-25T09:50:13.847Z,0.60
2018-09-25T09:52:47.552Z,0.50
2018-09-25T09:55:21.202Z,0.60
2018-09-25T09:57:55.040Z,0.80
2018-09-25T10:00:28.844Z,0.70
2018-09-25T10:03:02.458Z,0.97
2018-09-25T10:05:36.101Z,0.73
2018-09-25T10:08:09.694Z,0.60
2018-09-25T10:10:43.429Z,0.63
2018-09-25T10:13:17.143Z,0.77
2018-09-25T10:15:51.015Z,0.57
2018-09-25T10:18:24.655Z,3.27
2018-09-25T10:20:58.263Z,1.20
2018-09-25T10:23:31.846Z,0.80
2018-09-25T10:26:05.442Z,0.63
2018-09-25T10:28:39.181Z,0.50
2018-09-25T10:31:12.908Z,0.73
2018-09-25T10:33:46.717Z,0.60
2018-09-25T10:36:20.323Z,0.70
2018-09-25T10:38:53.875Z,0.70
2018-09-25T10:41:27.430Z,0.50
2018-09-25T10:44:01.519Z,0.60
2018-09-25T10:46:35.010Z,0.83
2018-09-25T10:49:08.797Z,0.57
2018-09-25T10:51:42.565Z,0.60
2018-09-25T10:54:16.318Z,0.60
2018-09-25T10:56:49.885Z,1.00
2018-09-25T10:59:23.681Z,0.67
2018-09-25T11:01:57.557Z,0.60
2018-09-25T11:04:31.201Z,0.50
2018-09-25T11:07:04.622Z,0.70
2018-09-25T11:09:38.631Z,0.70
2018-09-25T11:12:11.926Z,0.90
2018-09-25T11:14:45.682Z,0.60
2018-09-25T11:17:19.339Z,0.80
2018-09-25T11:19:53.013Z,0.40
2018-09-25T11:22:26.509Z,0.57
2018-09-25T11:25:00.472Z,0.80
2018-09-25T11:27:34.207Z,1.00
2018-09-25T11:30:07.991Z,0.60
2018-09-25T11:32:41.753Z,0.60
2018-09-25T11:35:15.284Z,0.80
2018-09-25T11:37:49.033Z,0.70
2018-09-25T11:40:22.843Z,0.80
2018-09-25T11:42:56.614Z,0.77
2018-09-25T11:45:30.227Z,0.70
2018-09-25T11:48:03.731Z,0.70
2018-09-25T11:50:37.222Z,0.70
2018-09-25T11:53:11.012Z,0.63
2018-09-25T11:55:45.942Z,0.97
2018-09-25T11:58:19.615Z,0.80
2018-09-25T12:00:52.987Z,0.60
2018-09-25T12:03:26.401Z,0.90
2018-09-25T12:06:00.206Z,0.70
2018-09-25T12:08:33.750Z,0.63
2018-09-25T12:11:07.302Z,0.70
2018-09-25T12:13:41.004Z,0.60
2018-09-25T12:16:14.473Z,0.60
2018-09-25T12:18:48.005Z,0.63
2018-09-25T12:21:21.462Z,0.60
2018-09-25T12:23:55.201Z,0.70
2018-09-25T12:26:29.117Z,0.60
2018-09-25T12:29:02.736Z,0.57
2018-09-25T12:31:36.398Z,0.70
2018-09-25T12:34:10.196Z,1.23
2018-09-25T12:36:44.138Z,0.80
2018-09-25T12:39:17.943Z,0.70
2018-09-25T12:41:51.633Z,0.80
2018-09-25T12:44:25.321Z,0.70
2018-09-25T12:46:58.865Z,0.70
2018-09-25T12:49:32.522Z,0.70
2018-09-25T12:52:05.986Z,0.60
2018-09-25T12:54:39.719Z,0.60
2018-09-25T12:57:13.415Z,0.77
2018-09-25T12:59:47.079Z,0.53
2018-09-25T13:02:21.261Z,0.50
2018-09-25T13:04:55.031Z,0.70
2018-09-25T13:07:28.842Z,0.67
2018-09-25T13:10:02.294Z,0.57
2018-09-25T13:12:36.025Z,0.60
2018-09-25T13:15:09.540Z,1.00
2018-09-25T13:17:43.336Z,0.70
2018-09-25T13:20:17.006Z,0.93
2018-09-25T13:22:50.694Z,0.80
2018-09-25T13:25:24.375Z,0.87
2018-09-25T13:27:58.401Z,0.93
2018-09-25T13:30:32.113Z,0.80
2018-09-25T13:33:05.830Z,0.80
2018-09-25T13:35:39.553Z,0.90
2018-09-25T13:38:13.165Z,0.83
2018-09-25T13:40:46.770Z,0.97
2018-09-25T13:43:20.474Z,1.07
2018-09-25T13:45:54.132Z,0.87
2018-09-25T13:48:27.666Z,0.80
2018-09-25T13:51:01.327Z,1.30
2018-09-25T13:53:35.016Z,1.03
2018-09-25T13:56:08.807Z,1.10
2018-09-25T13:58:42.303Z,1.10
2018-09-25T14:01:15.965Z,0.80
2018-09-25T14:03:49.757Z,1.07
2018-09-25T14:06:23.481Z,0.87
2018-09-25T14:08:57.218Z,1.00
2018-09-25T14:11:30.942Z,0.87
2018-09-25T14:14:04.446Z,0.80
2018-09-25T14:16:38.103Z,0.70
2018-09-25T14:19:11.614Z,0.80
2018-09-25T14:21:45.249Z,1.00
2018-09-25T14:24:18.924Z,1.00
2018-09-25T14:26:52.602Z,0.80
2018-09-25T14:29:26.294Z,1.10
2018-09-25T14:31:59.770Z,0.90
2018-09-25T14:34:33.375Z,1.10
2018-09-25T14:37:06.958Z,1.00
2018-09-25T14:39:40.511Z,0.87
2018-09-25T14:42:14.218Z,1.30
2018-09-25T14:44:47.952Z,0.90
2018-09-25T14:47:21.743Z,1.00
2018-09-25T14:49:55.526Z,1.47
2018-09-25T14:52:29.045Z,0.90
2018-09-25T14:55:02.573Z,1.27
2018-09-25T14:57:36.041Z,1.20
2018-09-25T15:00:09.797Z,1.10
2018-09-25T15:02:43.530Z,1.13
2018-09-25T15:05:17.263Z,1.00
2018-09-25T15:07:50.848Z,1.10
2018-09-25T15:10:24.290Z,1.00
2018-09-25T15:12:58.027Z,2.47
2018-09-25T15:15:32.289Z,1.10
2018-09-25T15:18:05.901Z,1.20
2018-09-25T15:20:39.502Z,1.47
2018-09-25T15:23:13.145Z,1.20
2018-09-25T15:25:46.894Z,1.33
2018-09-25T15:28:20.323Z,1.07
2018-09-25T15:30:53.941Z,1.20
2018-09-25T15:33:27.851Z,0.93
2018-09-25T15:36:01.452Z,1.10
2018-09-25T15:38:35.241Z,1.20
2018-09-25T15:41:08.934Z,1.10
2018-09-25T15:43:42.666Z,1.13
2018-09-25T15:46:16.494Z,1.20
2018-09-25T15:48:50.164Z,1.00
2018-09-25T15:51:23.780Z,1.10
2018-09-25T15:53:57.500Z,1.30
2018-09-25T15:56:31.178Z,1.20
2018-09-25T15:59:04.727Z,1.00
2018-09-25T16:01:38.393Z,1.10
2018-09-25T16:04:12.193Z,1.63
2018-09-25T16:06:45.986Z,1.50
2018-09-25T16:09:19.749Z,1.13
2018-09-25T16:11:53.353Z,1.20
2018-09-25T16:14:27.012Z,0.90
2018-09-25T16:17:00.512Z,1.20
2018-09-25T16:19:34.041Z,1.10
2018-09-25T16:22:07.709Z,1.33
2018-09-25T16:24:41.450Z,1.33
2018-09-25T16:27:15.186Z,1.10
2018-09-25T16:29:48.886Z,1.27
2018-09-25T16:32:22.590Z,1.23
2018-09-25T16:34:56.226Z,1.07
2018-09-25T16:37:30.174Z,1.03
2018-09-25T16:40:03.841Z,1.00
2018-09-25T16:42:37.626Z,0.97
2018-09-25T16:45:11.330Z,1.20
2018-09-25T16:47:45.180Z,1.00
2018-09-25T16:50:18.987Z,0.87
2018-09-25T16:52:53.107Z,1.20
2018-09-25T16:55:26.610Z,1.20
2018-09-25T16:58:00.455Z,0.93
2018-09-25T17:00:34.293Z,1.60
2018-09-25T17:03:07.935Z,1.17
2018-09-25T17:05:41.567Z,1.22
2018-09-25T17:08:15.268Z,1.32
2018-09-25T17:10:48.807Z,1.53
2018-09-25T17:13:22.823Z,1.30
2018-09-25T17:15:56.544Z,1.60
2018-09-25T17:18:30.222Z,2.60
2018-09-25T17:21:03.721Z,1.43
2018-09-25T17:23:37.526Z,1.33
2018-09-25T17:26:11.406Z,1.10
2018-09-25T17:28:44.977Z,1.00
2018-09-25T17:31:18.529Z,1.82
2018-09-25T17:33:52.248Z,1.40
2018-09-25T17:36:25.955Z,1.40
2018-09-25T17:38:59.571Z,1.52
2018-09-25T17:41:33.032Z,2.05
2018-09-25T17:44:06.709Z,2.47
2018-09-25T17:46:40.287Z,3.30
2018-09-25T17:49:14.043Z,2.40
2018-09-25T17:51:47.662Z,2.47
2018-09-25T17:54:21.442Z,4.28
2018-09-25T17:56:55.250Z,2.90
2018-09-25T17:59:28.840Z,3.85
2018-09-25T18:02:02.536Z,3.70
2018-09-25T18:04:36.366Z,3.40
2018-09-25T18:07:10.110Z,3.80
2018-09-25T18:09:43.802Z,4.37
2018-09-25T18:12:17.558Z,4.08
2018-09-25T18:14:51.294Z,4.35
2018-09-25T18:17:25.154Z,8.13
2018-09-25T18:19:58.751Z,9.80
2018-09-25T18:22:32.503Z,9.00
2018-09-25T18:25:06.365Z,9.13
2018-09-25T18:27:39.879Z,9.93
2018-09-25T18:30:13.600Z,9.65
2018-09-25T18:32:47.196Z,8.70
2018-09-25T18:35:21.333Z,8.43
2018-09-25T18:37:54.910Z,8.75
2018-09-25T18:40:28.542Z,8.10
2018-09-25T18:43:02.197Z,8.15
2018-09-25T18:45:35.832Z,6.80
2018-09-25T18:48:09.601Z,7.33
2018-09-25T18:50:43.550Z,6.90
2018-09-25T18:53:17.057Z,7.97
2018-09-25T18:55:50.626Z,8.03
2018-09-25T18:58:24.449Z,8.30
2018-09-25T19:00:58.374Z,8.15
2018-09-25T19:03:31.973Z,9.38
2018-09-25T19:06:05.521Z,8.80
2018-09-25T19:08:39.237Z,8.15
2018-09-25T19:11:13.074Z,8.50
2018-09-25T19:13:46.845Z,8.88
2018-09-25T19:16:20.442Z,7.60
2018-09-25T19:18:54.186Z,7.83
2018-09-25T19:21:28.019Z,8.18
2018-09-25T19:24:02.693Z,7.53
2018-09-25T19:26:36.830Z,6.65
2018-09-25T19:29:10.354Z,6.08
2018-09-25T19:31:43.929Z,6.60
2018-09-25T19:34:17.441Z,5.80
2018-09-25T19:36:50.941Z,5.17
2018-09-25T19:39:24.678Z,5.15
2018-09-25T19:41:58.502Z,5.50
2018-09-25T19:44:31.937Z,5.20
2018-09-25T19:47:05.622Z,4.72
2018-09-25T19:49:39.417Z,5.47
2018-09-25T19:52:13.163Z,5.72
2018-09-25T19:54:46.879Z,5.60
2018-09-25T19:57:20.610Z,5.83
2018-09-25T19:59:54.356Z,6.85
2018-09-25T20:02:27.905Z,7.35
2018-09-25T20:05:01.609Z,7.10
2018-09-25T20:07:35.186Z,8.25
2018-09-25T20:10:08.924Z,7.17
2018-09-25T20:12:42.790Z,6.05
2018-09-25T20:15:16.342Z,5.47
2018-09-25T20:17:50.052Z,6.78
2018-09-25T20:20:23.702Z,5.30
2018-09-25T20:22:57.454Z,6.15
2018-09-25T20:25:30.983Z,5.50
2018-09-25T20:28:04.694Z,5.00
2018-09-25T20:30:38.402Z,5.00
2018-09-25T20:33:11.991Z,5.12
2018-09-25T20:35:52.610Z,4.60
2018-09-25T20:38:26.562Z,4.95
2018-09-25T20:41:00.185Z,5.35
2018-09-25T20:43:33.950Z,5.28
2018-09-25T20:46:08.246Z,4.95
2018-09-25T20:48:41.805Z,4.50
2018-09-25T20:51:15.392Z,5.58
2018-09-25T20:53:49.030Z,5.03
2018-09-25T20:56:22.596Z,5.45
2018-09-25T20:58:56.412Z,4.83
2018-09-25T21:01:30.097Z,5.72
2018-09-25T21:04:03.661Z,5.20
2018-09-25T21:06:37.514Z,5.37
2018-09-25T21:09:13.809Z,5.47
2018-09-25T21:11:47.869Z,6.03
2018-09-25T21:14:21.991Z,4.65
2018-09-25T21:16:55.692Z,5.35
2018-09-25T21:19:29.442Z,5.47
2018-09-25T21:22:02.993Z,5.03
2018-09-25T21:24:36.813Z,4.87
2018-09-25T21:27:10.474Z,5.10
2018-09-25T21:29:44.322Z,5.05
2018-09-25T21:32:18.084Z,5.22
2018-09-25T21:34:51.708Z,5.08
2018-09-25T21:37:25.342Z,5.40
2018-09-25T21:39:59.335Z,5.10
2018-09-25T21:42:32.906Z,5.87
2018-09-25T21:45:06.569Z,5.85
2018-09-25T21:47:40.345Z,5.28
2018-09-25T21:50:14.345Z,5.30
2018-09-25T21:52:48.079Z,5.90
2018-09-25T21:55:21.869Z,6.08
2018-09-25T21:57:55.499Z,5.87
2018-09-25T22:00:29.464Z,6.03
2018-09-25T22:03:03.193Z,6.05
2018-09-25T22:05:36.667Z,5.78
2018-09-25T22:08:10.386Z,5.45
2018-09-25T22:10:44.018Z,5.83
2018-09-25T22:13:17.625Z,6.95
2018-09-25T22:15:51.171Z,6.20
2018-09-25T22:18:24.668Z,5.95
2018-09-25T22:20:58.193Z,6.85
2018-09-25T22:23:31.825Z,6.15
2018-09-25T22:26:05.630Z,6.67
2018-09-25T22:28:39.437Z,6.30
2018-09-25T22:31:13.242Z,6.30
2018-09-25T22:33:47.037Z,7.67
2018-09-25T22:36:20.633Z,6.17
2018-09-25T22:38:54.246Z,6.37
2018-09-25T22:41:27.905Z,7.45
2018-09-25T22:44:01.580Z,7.03
2018-09-25T22:46:35.711Z,7.22
2018-09-25T22:49:09.405Z,7.35
2018-09-25T22:51:43.141Z,7.37
2018-09-25T22:54:16.899Z,7.80
2018-09-25T22:56:50.612Z,7.25
2018-09-25T22:59:24.174Z,7.22
2018-09-25T23:01:58.228Z,9.70
2018-09-25T23:04:31.876Z,7.60
2018-09-25T23:07:05.616Z,7.65
2018-09-25T23:09:39.293Z,7.83
2018-09-25T23:12:13.121Z,7.60
2018-09-25T23:14:46.805Z,8.70
2018-09-25T23:17:20.453Z,7.90
2018-09-25T23:19:53.934Z,7.92
2018-09-25T23:22:27.719Z,8.65
2018-09-25T23:25:01.333Z,8.15
2018-09-25T23:27:34.881Z,8.68
2018-09-25T23:30:08.635Z,8.58
2018-09-25T23:32:42.353Z,8.50
2018-09-25T23:35:16.142Z,8.65
2018-09-25T23:37:49.690Z,7.60
2018-09-25T23:40:26.137Z,9.03
2018-09-25T23:43:01.593Z,8.60
2018-09-25T23:45:54.037Z,9.38
2018-09-25T23:50:31.574Z,8.78
2018-09-25T23:53:15.166Z,8.13
2018-09-25T23:56:52.090Z,8.25
2018-09-25T23:59:26.313Z,7.95
